KPAE/PAE METAR and TAF weather

Enter ICAO airport designator
Station Type Date Time Source
KPAE METAR 2020/07/14 05:53 UTC NOAA

KPAE 140553Z AUTO 03005KT 10SM CLR 13/10 A3013 RMK AO2 SLP202 T01330100 10211 20133 53005


Station Type Date Time Source
KPAE Decoded METAR 2020/07/14 05:53 UTC NOAA

EVERETT SNOHOMISH COUNTY, WA, United States (KPAE) 47-55N 122-17W 180M
Jul 14, 2020 - 01:53 AM EDT / 2020.07.14 0553 UTC
Wind: from the NNE (030 degrees) at 6 MPH (5 KT):0
Visibility: 10 mile(s):0
Sky conditions: clear
Temperature: 55.9 F (13.3 C)
Dew Point: 50.0 F (10.0 C)
Relative Humidity: 80%
Pressure (altimeter): 30.13 in. Hg (1020 hPa)
Pressure tendency: 0.01 inches (0.5 hPa) higher than three hours ago
ob: KPAE 140553Z AUTO 03005KT 10SM CLR 13/10 A3013 RMK AO2 SLP202 T01330100 10211 20133 53005
cycle: 6

Station Type Date Time Source
KPAE TAF 2020/07/14 06:39 UTC NOAA

TAF KPAE 140536Z 1406/1506 36006KT P6SM SKC

Example: see airport list